sensor_id;sensor_type;location;lat;lon;timestamp;pressure;altitude;pressure_sealevel;temperature;humidity
68226;BME280;55045;49.410;11.030;2023-02-21T00:02:00;98494.75;;;4.99;100.00
68226;BME280;55045;49.410;11.030;2023-02-21T00:05:21;98488.84;;;4.95;100.00
68226;BME280;55045;49.410;11.030;2023-02-21T00:08:42;98488.44;;;4.72;100.00
68226;BME280;55045;49.410;11.030;2023-02-21T00:12:04;98492.88;;;4.63;100.00
68226;BME280;55045;49.410;11.030;2023-02-21T00:15:25;98493.53;;;4.73;100.00
68226;BME280;55045;49.410;11.030;2023-02-21T00:18:46;98491.50;;;4.90;100.00
68226;BME280;55045;49.410;11.030;2023-02-21T00:22:07;98481.56;;;4.72;100.00
68226;BME280;55045;49.410;11.030;2023-02-21T00:25:27;98476.28;;;4.78;100.00
68226;BME280;55045;49.410;11.030;2023-02-21T00:28:48;98466.47;;;4.55;100.00
68226;BME280;55045;49.410;11.030;2023-02-21T00:32:10;98470.66;;;4.59;100.00
68226;BME280;55045;49.410;11.030;2023-02-21T00:35:30;98474.31;;;4.48;100.00
68226;BME280;55045;49.410;11.030;2023-02-21T00:38:53;98473.88;;;4.24;100.00
68226;BME280;55045;49.410;11.030;2023-02-21T00:42:13;98465.50;;;4.13;100.00
68226;BME280;55045;49.410;11.030;2023-02-21T00:45:34;98474.97;;;4.11;100.00
68226;BME280;55045;49.410;11.030;2023-02-21T00:48:56;98476.00;;;3.98;100.00
68226;BME280;55045;49.410;11.030;2023-02-21T00:52:17;98468.22;;;4.04;100.00
68226;BME280;55045;49.410;11.030;2023-02-21T00:55:37;98461.59;;;3.91;100.00
68226;BME280;55045;49.410;11.030;2023-02-21T00:58:58;98476.44;;;3.72;100.00
68226;BME280;55045;49.410;11.030;2023-02-21T01:02:19;98468.72;;;3.73;100.00
68226;BME280;55045;49.410;11.030;2023-02-21T01:05:41;98463.66;;;3.67;100.00
68226;BME280;55045;49.410;11.030;2023-02-21T01:09:03;98460.31;;;3.64;100.00
68226;BME280;55045;49.410;11.030;2023-02-21T01:12:24;98467.94;;;3.68;100.00
68226;BME280;55045;49.410;11.030;2023-02-21T01:15:44;98460.34;;;3.61;100.00
68226;BME280;55045;49.410;11.030;2023-02-21T01:19:05;98473.34;;;3.47;100.00
68226;BME280;55045;49.410;11.030;2023-02-21T01:22:27;98463.94;;;3.51;100.00
68226;BME280;55045;49.410;11.030;2023-02-21T01:25:48;98470.81;;;3.45;100.00
68226;BME280;55045;49.410;11.030;2023-02-21T01:29:13;98464.16;;;3.34;100.00
68226;BME280;55045;49.410;11.030;2023-02-21T01:32:34;98470.06;;;3.40;100.00
68226;BME280;55045;49.410;11.030;2023-02-21T01:35:55;98457.16;;;3.45;100.00
68226;BME280;55045;49.410;11.030;2023-02-21T01:39:17;98462.19;;;3.53;100.00
68226;BME280;55045;49.410;11.030;2023-02-21T01:42:37;98463.09;;;3.50;100.00
68226;BME280;55045;49.410;11.030;2023-02-21T01:45:58;98462.25;;;3.46;100.00
68226;BME280;55045;49.410;11.030;2023-02-21T01:49:19;98474.28;;;3.43;100.00
68226;BME280;55045;49.410;11.030;2023-02-21T01:52:39;98466.81;;;3.28;100.00
68226;BME280;55045;49.410;11.030;2023-02-21T01:56:01;98467.63;;;3.31;100.00
68226;BME280;55045;49.410;11.030;2023-02-21T01:59:24;98465.44;;;3.02;100.00
68226;BME280;55045;49.410;11.030;2023-02-21T02:02:50;98463.72;;;3.01;100.00
68226;BME280;55045;49.410;11.030;2023-02-21T02:06:14;98459.75;;;2.79;100.00
68226;BME280;55045;49.410;11.030;2023-02-21T02:09:36;98468.16;;;2.88;100.00
68226;BME280;55045;49.410;11.030;2023-02-21T02:16:31;98457.06;;;2.88;100.00
68226;BME280;55045;49.410;11.030;2023-02-21T02:19:57;98467.38;;;2.82;100.00
68226;BME280;55045;49.410;11.030;2023-02-21T02:23:32;98455.47;;;2.78;100.00
68226;BME280;55045;49.410;11.030;2023-02-21T02:26:59;98458.91;;;2.77;100.00
68226;BME280;55045;49.410;11.030;2023-02-21T02:37:08;98448.16;;;2.44;100.00
68226;BME280;55045;49.410;11.030;2023-02-21T02:40:18;98449.03;;;2.43;100.00
68226;BME280;55045;49.410;11.030;2023-02-21T02:43:29;98450.66;;;2.50;100.00
68226;BME280;55045;49.410;11.030;2023-02-21T02:46:36;98440.59;;;2.32;100.00
68226;BME280;55045;49.410;11.030;2023-02-21T02:49:42;98451.75;;;2.28;100.00
68226;BME280;55045;49.410;11.030;2023-02-21T02:52:52;98451.78;;;2.26;100.00
68226;BME280;55045;49.410;11.030;2023-02-21T02:56:01;98423.84;;;2.05;100.00
68226;BME280;55045;49.410;11.030;2023-02-21T02:59:09;98451.88;;;2.16;100.00
68226;BME280;55045;49.410;11.030;2023-02-21T03:02:27;98456.91;;;2.23;100.00
68226;BME280;55045;49.410;11.030;2023-02-21T03:05:59;98454.53;;;2.05;100.00
68226;BME280;55045;49.410;11.030;2023-02-21T03:09:10;98465.59;;;2.07;100.00
68226;BME280;55045;49.410;11.030;2023-02-21T03:12:19;98462.25;;;1.97;100.00
68226;BME280;55045;49.410;11.030;2023-02-21T03:15:32;98429.38;;;1.55;100.00
68226;BME280;55045;49.410;11.030;2023-02-21T03:18:42;98466.69;;;1.77;100.00
68226;BME280;55045;49.410;11.030;2023-02-21T03:21:50;98469.28;;;1.74;100.00
68226;BME280;55045;49.410;11.030;2023-02-21T03:24:57;98469.28;;;1.69;100.00
68226;BME280;55045;49.410;11.030;2023-02-21T03:28:03;98470.16;;;1.70;100.00
68226;BME280;55045;49.410;11.030;2023-02-21T03:31:15;98465.06;;;1.67;100.00
68226;BME280;55045;49.410;11.030;2023-02-21T03:34:19;98471.03;;;1.63;100.00
68226;BME280;55045;49.410;11.030;2023-02-21T03:37:30;98476.16;;;1.63;100.00
68226;BME280;55045;49.410;11.030;2023-02-21T03:40:35;98479.66;;;1.48;100.00
68226;BME280;55045;49.410;11.030;2023-02-21T03:43:38;98481.34;;;1.55;100.00
68226;BME280;55045;49.410;11.030;2023-02-21T03:46:41;98476.94;;;1.71;100.00
68226;BME280;55045;49.410;11.030;2023-02-21T03:49:45;98467.78;;;1.41;100.00
68226;BME280;55045;49.410;11.030;2023-02-21T03:52:48;98483.03;;;1.58;100.00
68226;BME280;55045;49.410;11.030;2023-02-21T03:55:52;98472.72;;;1.68;100.00
68226;BME280;55045;49.410;11.030;2023-02-21T03:59:04;98476.06;;;1.78;100.00
68226;BME280;55045;49.410;11.030;2023-02-21T04:02:08;98473.44;;;1.83;100.00
68226;BME280;55045;49.410;11.030;2023-02-21T04:05:12;98464.88;;;1.91;100.00
68226;BME280;55045;49.410;11.030;2023-02-21T04:08:16;98472.53;;;1.94;100.00
68226;BME280;55045;49.410;11.030;2023-02-21T04:11:21;98469.03;;;2.05;100.00
68226;BME280;55045;49.410;11.030;2023-02-21T04:14:26;98451.13;;;2.03;100.00
68226;BME280;55045;49.410;11.030;2023-02-21T04:17:30;98460.41;;;2.16;100.00
68226;BME280;55045;49.410;11.030;2023-02-21T04:20:34;98463.75;;;2.21;100.00
68226;BME280;55045;49.410;11.030;2023-02-21T04:23:39;98450.94;;;2.21;100.00
68226;BME280;55045;49.410;11.030;2023-02-21T04:26:43;98418.59;;;2.14;100.00
68226;BME280;55045;49.410;11.030;2023-02-21T04:29:47;98444.78;;;2.42;100.00
68226;BME280;55045;49.410;11.030;2023-02-21T04:34:30;98442.19;;;2.47;100.00
68226;BME280;55045;49.410;11.030;2023-02-21T04:37:33;98442.97;;;2.52;100.00
68226;BME280;55045;49.410;11.030;2023-02-21T04:40:37;98443.69;;;2.66;100.00
68226;BME280;55045;49.410;11.030;2023-02-21T04:43:40;98436.63;;;2.82;100.00
68226;BME280;55045;49.410;11.030;2023-02-21T04:46:45;98430.56;;;2.91;100.00
68226;BME280;55045;49.410;11.030;2023-02-21T04:49:50;98433.06;;;2.97;100.00
68226;BME280;55045;49.410;11.030;2023-02-21T04:52:56;98421.72;;;3.13;100.00
68226;BME280;55045;49.410;11.030;2023-02-21T04:55:59;98411.44;;;3.14;100.00
68226;BME280;55045;49.410;11.030;2023-02-21T04:59:02;98387.50;;;3.15;100.00
68226;BME280;55045;49.410;11.030;2023-02-21T05:02:05;98402.72;;;3.26;100.00
68226;BME280;55045;49.410;11.030;2023-02-21T05:05:11;98400.06;;;3.34;100.00
68226;BME280;55045;49.410;11.030;2023-02-21T05:08:15;98392.25;;;3.41;100.00
68226;BME280;55045;49.410;11.030;2023-02-21T05:11:19;98385.34;;;3.45;100.00
68226;BME280;55045;49.410;11.030;2023-02-21T05:14:22;98400.50;;;3.62;100.00
68226;BME280;55045;49.410;11.030;2023-02-21T05:17:26;98398.59;;;3.73;100.00
68226;BME280;55045;49.410;11.030;2023-02-21T05:20:31;98396.00;;;3.74;100.00
68226;BME280;55045;49.410;11.030;2023-02-21T05:23:34;98391.72;;;3.75;100.00
68226;BME280;55045;49.410;11.030;2023-02-21T05:26:39;98398.44;;;3.82;100.00
68226;BME280;55045;49.410;11.030;2023-02-21T05:29:45;98390.72;;;3.84;100.00
68226;BME280;55045;49.410;11.030;2023-02-21T05:32:48;98393.34;;;3.81;100.00
68226;BME280;55045;49.410;11.030;2023-02-21T05:35:53;98392.41;;;3.85;100.00
68226;BME280;55045;49.410;11.030;2023-02-21T05:38:57;98395.69;;;3.93;100.00
68226;BME280;55045;49.410;11.030;2023-02-21T05:42:00;98405.13;;;3.92;100.00
68226;BME280;55045;49.410;11.030;2023-02-21T05:45:03;98401.81;;;3.84;100.00
68226;BME280;55045;49.410;11.030;2023-02-21T05:48:07;98401.88;;;3.83;100.00
68226;BME280;55045;49.410;11.030;2023-02-21T05:51:12;98394.31;;;3.73;100.00
68226;BME280;55045;49.410;11.030;2023-02-21T05:54:18;98399.28;;;3.83;100.00
68226;BME280;55045;49.410;11.030;2023-02-21T05:57:21;98399.22;;;3.86;100.00
68226;BME280;55045;49.410;11.030;2023-02-21T06:00:26;98402.47;;;3.97;100.00
68226;BME280;55045;49.410;11.030;2023-02-21T06:03:30;98399.03;;;3.99;100.00
68226;BME280;55045;49.410;11.030;2023-02-21T06:06:35;98403.28;;;4.00;100.00
68226;BME280;55045;49.410;11.030;2023-02-21T06:09:38;98383.69;;;3.95;100.00
68226;BME280;55045;49.410;11.030;2023-02-21T06:12:41;98402.31;;;4.06;100.00
68226;BME280;55045;49.410;11.030;2023-02-21T06:15:45;98402.03;;;4.21;100.00
68226;BME280;55045;49.410;11.030;2023-02-21T06:18:49;98397.81;;;4.17;100.00
68226;BME280;55045;49.410;11.030;2023-02-21T06:21:54;98397.81;;;4.17;100.00
68226;BME280;55045;49.410;11.030;2023-02-21T06:24:57;98383.44;;;4.10;100.00
68226;BME280;55045;49.410;11.030;2023-02-21T06:28:00;98405.44;;;4.23;100.00
68226;BME280;55045;49.410;11.030;2023-02-21T06:31:04;98396.78;;;4.27;100.00
68226;BME280;55045;49.410;11.030;2023-02-21T06:34:07;98405.31;;;4.29;100.00
68226;BME280;55045;49.410;11.030;2023-02-21T06:37:12;98398.53;;;4.25;100.00
68226;BME280;55045;49.410;11.030;2023-02-21T06:40:15;98400.06;;;4.36;100.00
68226;BME280;55045;49.410;11.030;2023-02-21T06:43:19;98390.47;;;4.45;100.00
68226;BME280;55045;49.410;11.030;2023-02-21T06:46:24;98404.94;;;4.48;100.00
68226;BME280;55045;49.410;11.030;2023-02-21T06:49:27;98403.03;;;4.59;100.00
68226;BME280;55045;49.410;11.030;2023-02-21T06:52:32;98402.97;;;4.62;100.00
68226;BME280;55045;49.410;11.030;2023-02-21T06:55:35;98395.25;;;4.63;100.00
68226;BME280;55045;49.410;11.030;2023-02-21T06:58:38;98406.19;;;4.73;100.00
68226;BME280;55045;49.410;11.030;2023-02-21T07:01:41;98408.69;;;4.76;100.00
68226;BME280;55045;49.410;11.030;2023-02-21T07:04:46;98413.84;;;4.75;100.00
68226;BME280;55045;49.410;11.030;2023-02-21T07:07:50;98382.56;;;4.54;100.00
68226;BME280;55045;49.410;11.030;2023-02-21T07:10:54;98406.91;;;4.78;100.00
68226;BME280;55045;49.410;11.030;2023-02-21T07:13:57;98394.22;;;4.72;100.00
68226;BME280;55045;49.410;11.030;2023-02-21T07:17:00;98413.56;;;4.88;100.00
68226;BME280;55045;49.410;11.030;2023-02-21T07:20:04;98424.44;;;5.01;100.00
68226;BME280;55045;49.410;11.030;2023-02-21T07:23:09;98414.19;;;5.01;100.00
68226;BME280;55045;49.410;11.030;2023-02-21T07:26:13;98412.44;;;5.02;100.00
68226;BME280;55045;49.410;11.030;2023-02-21T07:29:16;98409.72;;;5.08;100.00
68226;BME280;55045;49.410;11.030;2023-02-21T07:32:20;98414.59;;;5.22;100.00
68226;BME280;55045;49.410;11.030;2023-02-21T07:35:23;98416.97;;;5.29;100.00
68226;BME280;55045;49.410;11.030;2023-02-21T07:38:29;98421.06;;;5.38;100.00
68226;BME280;55045;49.410;11.030;2023-02-21T07:41:32;98419.22;;;5.44;100.00
68226;BME280;55045;49.410;11.030;2023-02-21T07:44:35;98353.97;;;5.10;100.00
68226;BME280;55045;49.410;11.030;2023-02-21T07:47:39;98404.53;;;5.48;100.00
68226;BME280;55045;49.410;11.030;2023-02-21T07:50:43;98430.72;;;5.65;100.00
68226;BME280;55045;49.410;11.030;2023-02-21T07:53:48;98428.03;;;5.70;100.00
68226;BME280;55045;49.410;11.030;2023-02-21T07:56:51;98428.56;;;5.84;100.00
68226;BME280;55045;49.410;11.030;2023-02-21T07:59:54;98420.09;;;5.79;100.00
68226;BME280;55045;49.410;11.030;2023-02-21T08:02:58;98435.78;;;6.05;100.00
68226;BME280;55045;49.410;11.030;2023-02-21T08:06:01;98442.41;;;6.16;100.00
68226;BME280;55045;49.410;11.030;2023-02-21T08:09:06;98428.56;;;6.20;100.00
68226;BME280;55045;49.410;11.030;2023-02-21T08:12:10;98435.97;;;6.63;100.00
68226;BME280;55045;49.410;11.030;2023-02-21T08:15:13;98431.66;;;6.96;100.00
68226;BME280;55045;49.410;11.030;2023-02-21T08:18:19;98391.47;;;7.45;100.00
68226;BME280;55045;49.410;11.030;2023-02-21T08:21:25;98420.09;;;7.92;100.00
68226;BME280;55045;49.410;11.030;2023-02-21T08:24:29;98414.00;;;8.19;100.00
68226;BME280;55045;49.410;11.030;2023-02-21T08:27:32;98415.84;;;8.42;100.00
68226;BME280;55045;49.410;11.030;2023-02-21T08:30:36;98403.06;;;8.37;100.00
68226;BME280;55045;49.410;11.030;2023-02-21T08:33:39;98423.94;;;8.56;100.00
68226;BME280;55045;49.410;11.030;2023-02-21T08:36:43;98423.97;;;9.03;100.00
68226;BME280;55045;49.410;11.030;2023-02-21T08:39:48;98430.47;;;9.59;100.00
68226;BME280;55045;49.410;11.030;2023-02-21T08:42:53;98430.22;;;8.98;100.00
68226;BME280;55045;49.410;11.030;2023-02-21T08:45:57;98445.13;;;9.14;100.00
68226;BME280;55045;49.410;11.030;2023-02-21T08:49:01;98426.78;;;9.20;100.00
68226;BME280;55045;49.410;11.030;2023-02-21T08:52:04;98444.00;;;9.21;100.00
68226;BME280;55045;49.410;11.030;2023-02-21T08:55:08;98449.91;;;9.47;100.00
68226;BME280;55045;49.410;11.030;2023-02-21T08:58:12;98439.09;;;9.59;100.00
68226;BME280;55045;49.410;11.030;2023-02-21T09:01:16;98445.00;;;9.63;100.00
68226;BME280;55045;49.410;11.030;2023-02-21T09:04:19;98450.81;;;9.68;100.00
68226;BME280;55045;49.410;11.030;2023-02-21T09:07:25;98455.44;;;9.61;100.00
68226;BME280;55045;49.410;11.030;2023-02-21T09:10:31;98454.19;;;9.70;100.00
68226;BME280;55045;49.410;11.030;2023-02-21T09:13:38;98454.75;;;9.78;100.00
68226;BME280;55045;49.410;11.030;2023-02-21T09:16:42;98439.56;;;9.69;100.00
68226;BME280;55045;49.410;11.030;2023-02-21T09:19:49;98450.00;;;9.67;100.00
68226;BME280;55045;49.410;11.030;2023-02-21T09:22:52;98451.03;;;9.63;100.00
68226;BME280;55045;49.410;11.030;2023-02-21T09:25:57;98449.28;;;9.64;100.00
68226;BME280;55045;49.410;11.030;2023-02-21T09:29:00;98448.97;;;9.71;100.00
68226;BME280;55045;49.410;11.030;2023-02-21T09:32:03;98439.19;;;9.78;100.00
68226;BME280;55045;49.410;11.030;2023-02-21T09:35:08;98445.47;;;9.94;100.00
68226;BME280;55045;49.410;11.030;2023-02-21T09:38:11;98418.13;;;9.87;100.00
68226;BME280;55045;49.410;11.030;2023-02-21T09:41:17;98450.53;;;9.97;100.00
68226;BME280;55045;49.410;11.030;2023-02-21T09:44:23;98438.81;;;10.09;100.00
68226;BME280;55045;49.410;11.030;2023-02-21T09:47:31;98442.63;;;10.22;100.00
68226;BME280;55045;49.410;11.030;2023-02-21T09:50:39;98450.06;;;10.30;100.00
68226;BME280;55045;49.410;11.030;2023-02-21T09:53:46;98440.75;;;10.26;100.00
68226;BME280;55045;49.410;11.030;2023-02-21T09:56:51;98444.88;;;10.50;100.00
68226;BME280;55045;49.410;11.030;2023-02-21T09:59:56;98442.69;;;10.41;100.00
68226;BME280;55045;49.410;11.030;2023-02-21T10:03:09;98445.88;;;10.48;100.00
68226;BME280;55045;49.410;11.030;2023-02-21T10:06:27;98447.22;;;10.56;100.00
68226;BME280;55045;49.410;11.030;2023-02-21T10:09:38;98447.03;;;10.41;100.00
68226;BME280;55045;49.410;11.030;2023-02-21T10:12:49;98424.91;;;10.12;100.00
68226;BME280;55045;49.410;11.030;2023-02-21T10:16:00;98445.22;;;10.63;100.00
68226;BME280;55045;49.410;11.030;2023-02-21T10:19:09;98439.06;;;10.45;100.00
68226;BME280;55045;49.410;11.030;2023-02-21T10:22:19;98437.69;;;10.57;100.00
68226;BME280;55045;49.410;11.030;2023-02-21T10:25:26;98441.91;;;10.59;100.00
68226;BME280;55045;49.410;11.030;2023-02-21T10:28:31;98439.97;;;10.64;100.00
68226;BME280;55045;49.410;11.030;2023-02-21T10:34:32;98426.25;;;10.61;100.00
68226;BME280;55045;49.410;11.030;2023-02-21T10:37:39;98431.91;;;10.71;100.00
68226;BME280;55045;49.410;11.030;2023-02-21T10:40:46;98437.84;;;10.73;100.00
68226;BME280;55045;49.410;11.030;2023-02-21T10:43:52;98423.75;;;10.99;100.00
68226;BME280;55045;49.410;11.030;2023-02-21T10:47:00;98437.13;;;10.89;100.00
68226;BME280;55045;49.410;11.030;2023-02-21T10:50:07;98437.88;;;10.91;100.00
68226;BME280;55045;49.410;11.030;2023-02-21T10:53:24;98427.59;;;11.09;100.00
68226;BME280;55045;49.410;11.030;2023-02-21T10:56:27;98389.84;;;10.83;100.00
68226;BME280;55045;49.410;11.030;2023-02-21T10:59:32;98415.81;;;11.20;100.00
68226;BME280;55045;49.410;11.030;2023-02-21T11:02:39;98420.81;;;11.25;100.00
68226;BME280;55045;49.410;11.030;2023-02-21T11:05:48;98418.53;;;11.55;100.00
68226;BME280;55045;49.410;11.030;2023-02-21T11:08:53;98417.47;;;11.59;100.00
68226;BME280;55045;49.410;11.030;2023-02-21T11:12:01;98346.22;;;11.29;100.00
68226;BME280;55045;49.410;11.030;2023-02-21T11:15:16;98404.72;;;11.54;100.00
68226;BME280;55045;49.410;11.030;2023-02-21T11:18:23;98401.47;;;11.49;100.00
68226;BME280;55045;49.410;11.030;2023-02-21T11:21:28;98391.84;;;11.34;100.00
68226;BME280;55045;49.410;11.030;2023-02-21T11:24:31;98398.59;;;11.56;100.00
68226;BME280;55045;49.410;11.030;2023-02-21T11:27:35;98389.84;;;11.39;100.00
68226;BME280;55045;49.410;11.030;2023-02-21T11:30:49;98389.00;;;11.39;100.00
68226;BME280;55045;49.410;11.030;2023-02-21T11:34:06;98378.44;;;11.24;100.00
68226;BME280;55045;49.410;11.030;2023-02-21T11:37:12;98375.38;;;11.34;100.00
68226;BME280;55045;49.410;11.030;2023-02-21T11:40:31;98364.47;;;11.27;100.00
68226;BME280;55045;49.410;11.030;2023-02-21T11:43:44;98364.38;;;11.29;100.00
68226;BME280;55045;49.410;11.030;2023-02-21T11:46:54;98357.25;;;11.51;100.00
68226;BME280;55045;49.410;11.030;2023-02-21T11:50:06;98357.09;;;11.54;100.00
68226;BME280;55045;49.410;11.030;2023-02-21T11:53:17;98351.00;;;11.55;100.00
68226;BME280;55045;49.410;11.030;2023-02-21T11:56:31;98336.47;;;11.51;100.00
68226;BME280;55045;49.410;11.030;2023-02-21T11:59:44;98310.59;;;11.67;100.00
68226;BME280;55045;49.410;11.030;2023-02-21T12:03:02;98338.97;;;12.06;100.00
68226;BME280;55045;49.410;11.030;2023-02-21T12:06:12;98332.25;;;12.02;100.00
68226;BME280;55045;49.410;11.030;2023-02-21T12:09:25;98332.41;;;11.99;100.00
68226;BME280;55045;49.410;11.030;2023-02-21T12:12:40;98320.47;;;12.12;100.00
68226;BME280;55045;49.410;11.030;2023-02-21T12:15:57;98312.44;;;11.99;100.00
68226;BME280;55045;49.410;11.030;2023-02-21T12:19:16;98306.72;;;11.93;100.00
68226;BME280;55045;49.410;11.030;2023-02-21T12:22:32;98300.88;;;12.05;100.00
68226;BME280;55045;49.410;11.030;2023-02-21T12:25:51;98297.88;;;12.30;100.00
68226;BME280;55045;49.410;11.030;2023-02-21T12:29:08;98292.13;;;12.23;100.00
68226;BME280;55045;49.410;11.030;2023-02-21T12:32:33;98283.38;;;12.42;100.00
68226;BME280;55045;49.410;11.030;2023-02-21T12:39:22;98268.97;;;12.52;100.00
68226;BME280;55045;49.410;11.030;2023-02-21T12:42:56;98267.09;;;12.54;100.00
68226;BME280;55045;49.410;11.030;2023-02-21T12:46:08;98271.41;;;12.86;100.00
68226;BME280;55045;49.410;11.030;2023-02-21T12:49:18;98254.53;;;12.62;100.00
68226;BME280;55045;49.410;11.030;2023-02-21T12:52:27;98242.88;;;12.69;100.00
68226;BME280;55045;49.410;11.030;2023-02-21T12:55:34;98242.44;;;12.92;100.00
68226;BME280;55045;49.410;11.030;2023-02-21T12:58:46;98248.50;;;12.77;100.00
68226;BME280;55045;49.410;11.030;2023-02-21T13:01:54;98234.22;;;12.53;100.00
68226;BME280;55045;49.410;11.030;2023-02-21T13:05:02;98203.00;;;12.37;100.00
68226;BME280;55045;49.410;11.030;2023-02-21T13:08:14;98229.84;;;12.53;100.00
68226;BME280;55045;49.410;11.030;2023-02-21T13:11:25;98223.97;;;12.81;100.00
68226;BME280;55045;49.410;11.030;2023-02-21T13:14:36;98216.44;;;12.61;100.00
68226;BME280;55045;49.410;11.030;2023-02-21T13:17:41;98209.56;;;12.60;100.00
68226;BME280;55045;49.410;11.030;2023-02-21T13:20:52;98210.22;;;12.63;100.00
68226;BME280;55045;49.410;11.030;2023-02-21T13:23:58;98203.66;;;12.72;100.00
68226;BME280;55045;49.410;11.030;2023-02-21T13:27:38;98200.78;;;12.92;100.00
68226;BME280;55045;49.410;11.030;2023-02-21T13:30:48;98196.41;;;13.09;100.00
68226;BME280;55045;49.410;11.030;2023-02-21T13:33:54;98196.88;;;12.69;100.00
68226;BME280;55045;49.410;11.030;2023-02-21T13:37:01;98183.69;;;13.18;100.00
68226;BME280;55045;49.410;11.030;2023-02-21T13:40:20;98184.66;;;13.02;100.00
68226;BME280;55045;49.410;11.030;2023-02-21T13:43:28;98179.19;;;13.36;100.00
68226;BME280;55045;49.410;11.030;2023-02-21T13:50:44;98170.09;;;13.43;100.00
68226;BME280;55045;49.410;11.030;2023-02-21T13:54:07;98149.84;;;13.63;100.00
68226;BME280;55045;49.410;11.030;2023-02-21T13:57:29;98157.47;;;13.51;100.00
68226;BME280;55045;49.410;11.030;2023-02-21T14:00:47;98159.69;;;13.58;100.00
68226;BME280;55045;49.410;11.030;2023-02-21T14:03:50;98158.75;;;13.59;100.00
68226;BME280;55045;49.410;11.030;2023-02-21T14:06:56;98154.13;;;13.78;100.00
68226;BME280;55045;49.410;11.030;2023-02-21T14:10:00;98143.94;;;13.31;100.00
68226;BME280;55045;49.410;11.030;2023-02-21T14:13:07;98139.66;;;13.30;100.00
68226;BME280;55045;49.410;11.030;2023-02-21T14:16:24;98139.13;;;13.09;100.00
68226;BME280;55045;49.410;11.030;2023-02-21T14:19:32;98137.72;;;13.17;100.00
68226;BME280;55045;49.410;11.030;2023-02-21T14:22:38;98133.63;;;13.13;100.00
68226;BME280;55045;49.410;11.030;2023-02-21T14:25:53;98133.63;;;12.83;100.00
68226;BME280;55045;49.410;11.030;2023-02-21T14:29:11;98141.19;;;12.88;100.00
68226;BME280;55045;49.410;11.030;2023-02-21T14:32:33;98135.44;;;12.97;100.00
68226;BME280;55045;49.410;11.030;2023-02-21T14:35:44;98120.88;;;13.09;100.00
68226;BME280;55045;49.410;11.030;2023-02-21T14:38:51;98119.50;;;13.17;100.00
68226;BME280;55045;49.410;11.030;2023-02-21T14:42:09;98118.94;;;13.12;100.00
68226;BME280;55045;49.410;11.030;2023-02-21T14:45:28;98113.97;;;13.23;100.00
68226;BME280;55045;49.410;11.030;2023-02-21T14:49:17;98111.94;;;13.43;100.00
68226;BME280;55045;49.410;11.030;2023-02-21T14:52:35;98117.22;;;13.27;100.00
68226;BME280;55045;49.410;11.030;2023-02-21T14:55:59;98105.31;;;13.37;100.00
68226;BME280;55045;49.410;11.030;2023-02-21T14:59:29;98103.84;;;13.33;100.00
68226;BME280;55045;49.410;11.030;2023-02-21T15:02:38;98100.66;;;13.28;100.00
68226;BME280;55045;49.410;11.030;2023-02-21T15:05:53;98095.69;;;13.09;100.00
68226;BME280;55045;49.410;11.030;2023-02-21T15:09:11;98102.81;;;13.06;100.00
68226;BME280;55045;49.410;11.030;2023-02-21T15:12:16;98099.28;;;13.22;100.00
68226;BME280;55045;49.410;11.030;2023-02-21T15:15:23;98093.03;;;13.25;100.00
68226;BME280;55045;49.410;11.030;2023-02-21T15:18:28;98095.28;;;13.45;100.00
68226;BME280;55045;49.410;11.030;2023-02-21T15:21:31;98082.81;;;13.22;100.00
68226;BME280;55045;49.410;11.030;2023-02-21T15:24:35;98087.81;;;13.25;100.00
68226;BME280;55045;49.410;11.030;2023-02-21T15:27:53;98089.72;;;13.07;100.00
68226;BME280;55045;49.410;11.030;2023-02-21T15:31:00;98082.72;;;12.93;100.00
68226;BME280;55045;49.410;11.030;2023-02-21T15:34:04;98087.72;;;12.96;100.00
68226;BME280;55045;49.410;11.030;2023-02-21T15:37:14;98070.31;;;12.83;100.00
68226;BME280;55045;49.410;11.030;2023-02-21T15:40:21;98086.03;;;12.81;100.00
68226;BME280;55045;49.410;11.030;2023-02-21T15:43:38;98095.19;;;12.88;100.00
68226;BME280;55045;49.410;11.030;2023-02-21T15:46:44;98088.13;;;12.75;100.00
68226;BME280;55045;49.410;11.030;2023-02-21T15:49:52;98083.97;;;12.72;100.00
68226;BME280;55045;49.410;11.030;2023-02-21T15:53:16;98090.88;;;12.57;100.00
68226;BME280;55045;49.410;11.030;2023-02-21T15:56:23;98087.91;;;12.63;100.00
68226;BME280;55045;49.410;11.030;2023-02-21T15:59:30;98090.06;;;12.57;100.00
68226;BME280;55045;49.410;11.030;2023-02-21T16:02:33;98086.03;;;12.51;100.00
68226;BME280;55045;49.410;11.030;2023-02-21T16:05:36;98085.19;;;12.51;100.00
68226;BME280;55045;49.410;11.030;2023-02-21T16:08:52;98080.00;;;12.35;100.00
68226;BME280;55045;49.410;11.030;2023-02-21T16:12:04;98082.25;;;12.41;100.00
68226;BME280;55045;49.410;11.030;2023-02-21T16:15:21;98083.28;;;12.38;100.00
68226;BME280;55045;49.410;11.030;2023-02-21T16:18:25;98065.16;;;12.21;100.00
68226;BME280;55045;49.410;11.030;2023-02-21T16:21:28;98082.69;;;12.02;100.00
68226;BME280;55045;49.410;11.030;2023-02-21T16:24:31;98080.34;;;11.81;100.00
68226;BME280;55045;49.410;11.030;2023-02-21T16:27:35;98072.84;;;11.75;100.00
68226;BME280;55045;49.410;11.030;2023-02-21T16:34:32;98080.25;;;11.50;100.00
68226;BME280;55045;49.410;11.030;2023-02-21T16:37:37;98087.41;;;11.62;100.00
68226;BME280;55045;49.410;11.030;2023-02-21T16:40:40;98086.03;;;11.22;100.00
68226;BME280;55045;49.410;11.030;2023-02-21T16:43:43;98088.59;;;10.89;100.00
68226;BME280;55045;49.410;11.030;2023-02-21T16:46:49;98096.84;;;10.97;100.00
68226;BME280;55045;49.410;11.030;2023-02-21T16:49:54;98092.84;;;10.73;100.00
68226;BME280;55045;49.410;11.030;2023-02-21T16:52:58;98093.31;;;10.63;100.00